Bellevue, NE

7:14 PM CDT on April 19, 2015 (GMT -0500)
Stonecroft | | Change Station
CLOSE
Current Station
Personal Weather Station
Location: Bellevue, NE
Elevation: 1043 ft
Nearby Weather Stations

Elev 1043 ft 41.11 °N, 95.94 °W | Updated 4 minutes ago

Overcast
Overcast
52.4 °F
Feels Like 52.4 °F
N
3.0
Wind Variable Wind from NNW
Gusts 4.0 mph

Today
High -- | Low -- °F
--% Chance of Precip.
Yesterday
High -- | Low -- °F
Precip. -- in
6:38 AM 8:07 PM
New Moon, 2% visible
Pressure 29.72 in
Visibility 10.0 miles
Clouds Mostly Cloudy 8000 ft
Mostly Cloudy 9000 ft
Dew Point 44 °F
Humidity 74%
Rainfall 0.68 in
Snow Depth Not available.
UV 0 out of 12
Pollen 7.10 out of 12
Air Quality Not available.
Flu Activity Local Activity
METAR KOFF 192358Z AUTO 33010KT 10SM BKN080 BKN090 11/06 A2970 RMK AO2 SLP062 60002 T01110057 10120 20101 50001 $

More Conditions Fewer Conditions

Pressure 29.72 in
Visibility 10.0 miles
Clouds Mostly Cloudy 8000 ft
Mostly Cloudy 9000 ft
Dew Point 44 °F
Humidity 74%
Rainfall 0.68 in
Snow Depth Not available.
UV 0 out of 12
Pollen 7.10 out of 12
Air Quality Not available.
Flu Activity Local Activity
METAR KOFF 192358Z AUTO 33010KT 10SM BKN080 BKN090 11/06 A2970 RMK AO2 SLP062 60002 T01110057 10120 20101 50001 $

More Conditions Fewer Conditions

10-Day Weather Forecast

Almanac

Astronomy

Apr. 19, 2015 Rise Set
Actual Time
Civil Twilight
Nautical Twilight
Astronomical Twilight
Moon
Length of Visible Light
Length of Day
Tomorrow will be .
, % of the Moon is Illuminated

Today's Extremes

State Highs State Lows

Community

WunderPhotos

Upload Photos

1,815,052 photos uploaded!

WunderBlogs® & News

Nearby

Air Quality

  Air Quality AQ Index Pollutant
Not available.

Snow Depth

Station Depth Elevation

Earthquake Activity

City Distance Mag. Time & Date
Minimum magnitude displayed is 2.5.

Coastal Water Temperatures

Place Temperature

Stations

Nearby Weather Stations

Station Location Temp. Windchill Dew Point Humidity Wind Precip. Elev Updated Type